sensor_id;sensor_type;location;lat;lon;timestamp;pressure;altitude;pressure_sealevel;temperature;humidity
72486;BME280;60509;47.308;-122.428;2023-04-27T00:01:20;101011.58;;;14.41;25.77
72486;BME280;60509;47.308;-122.428;2023-04-27T00:03:46;101006.51;;;18.00;24.00
72486;BME280;60509;47.308;-122.428;2023-04-27T00:06:11;101001.24;;;19.52;22.33
72486;BME280;60509;47.308;-122.428;2023-04-27T00:08:37;101008.36;;;18.53;23.48
72486;BME280;60509;47.308;-122.428;2023-04-27T00:11:04;101006.58;;;17.16;23.74
72486;BME280;60509;47.308;-122.428;2023-04-27T00:13:29;101006.75;;;16.95;23.99
72486;BME280;60509;47.308;-122.428;2023-04-27T00:15:55;101005.59;;;16.54;24.30
72486;BME280;60509;47.308;-122.428;2023-04-27T00:18:21;101005.92;;;16.02;24.19
72486;BME280;60509;47.308;-122.428;2023-04-27T00:20:47;101008.45;;;16.53;23.81
72486;BME280;60509;47.308;-122.428;2023-04-27T00:23:13;101006.41;;;15.58;24.13
72486;BME280;60509;47.308;-122.428;2023-04-27T00:25:39;101007.47;;;14.87;24.51
72486;BME280;60509;47.308;-122.428;2023-04-27T00:28:04;101007.55;;;14.86;24.45
72486;BME280;60509;47.308;-122.428;2023-04-27T00:30:30;101004.50;;;15.84;23.80
72486;BME280;60509;47.308;-122.428;2023-04-27T00:32:56;101004.25;;;17.46;23.60
72486;BME280;60509;47.308;-122.428;2023-04-27T00:35:22;101005.77;;;18.61;22.36
72486;BME280;60509;47.308;-122.428;2023-04-27T00:37:48;101007.26;;;19.51;21.80
72486;BME280;60509;47.308;-122.428;2023-04-27T00:40:14;101010.52;;;18.39;22.75
72486;BME280;60509;47.308;-122.428;2023-04-27T00:42:40;101007.21;;;17.01;23.33
72486;BME280;60509;47.308;-122.428;2023-04-27T00:45:07;101002.53;;;15.92;23.81
72486;BME280;60509;47.308;-122.428;2023-04-27T00:47:32;101002.28;;;16.41;23.67
72486;BME280;60509;47.308;-122.428;2023-04-27T00:49:58;101003.40;;;15.28;24.19
72486;BME280;60509;47.308;-122.428;2023-04-27T00:52:24;101005.41;;;15.89;23.66
72486;BME280;60509;47.308;-122.428;2023-04-27T00:54:51;100999.85;;;15.08;24.07
72486;BME280;60509;47.308;-122.428;2023-04-27T00:57:15;101004.08;;;15.88;24.97
72486;BME280;60509;47.308;-122.428;2023-04-27T00:59:41;100997.51;;;18.29;23.68
72486;BME280;60509;47.308;-122.428;2023-04-27T01:02:07;100996.15;;;19.06;22.74
72486;BME280;60509;47.308;-122.428;2023-04-27T01:04:42;101000.41;;;18.04;23.88
72486;BME280;60509;47.308;-122.428;2023-04-27T01:06:59;101000.24;;;18.19;23.49
72486;BME280;60509;47.308;-122.428;2023-04-27T01:09:25;101006.90;;;16.84;24.24
72486;BME280;60509;47.308;-122.428;2023-04-27T01:11:51;101011.53;;;15.51;24.73
72486;BME280;60509;47.308;-122.428;2023-04-27T01:14:17;101011.41;;;14.81;25.31
72486;BME280;60509;47.308;-122.428;2023-04-27T01:16:43;101010.77;;;15.40;25.08
72486;BME280;60509;47.308;-122.428;2023-04-27T01:19:09;101013.85;;;15.20;26.59
72486;BME280;60509;47.308;-122.428;2023-04-27T01:21:35;101014.03;;;17.65;23.91
72486;BME280;60509;47.308;-122.428;2023-04-27T01:24:03;101012.23;;;18.71;22.89
72486;BME280;60509;47.308;-122.428;2023-04-27T01:26:26;101018.62;;;18.82;23.58
72486;BME280;60509;47.308;-122.428;2023-04-27T01:28:52;101020.88;;;16.82;24.52
72486;BME280;60509;47.308;-122.428;2023-04-27T01:31:18;101020.92;;;16.26;24.91
72486;BME280;60509;47.308;-122.428;2023-04-27T01:33:44;101017.64;;;15.46;25.17
72486;BME280;60509;47.308;-122.428;2023-04-27T01:36:10;101018.64;;;15.81;24.68
72486;BME280;60509;47.308;-122.428;2023-04-27T01:38:36;101013.60;;;15.38;25.06
72486;BME280;60509;47.308;-122.428;2023-04-27T01:41:03;101008.73;;;15.23;25.86
72486;BME280;60509;47.308;-122.428;2023-04-27T01:43:28;101008.57;;;16.81;24.67
72486;BME280;60509;47.308;-122.428;2023-04-27T01:45:54;101004.66;;;18.60;23.33
72486;BME280;60509;47.308;-122.428;2023-04-27T01:48:19;101000.37;;;18.73;23.04
72486;BME280;60509;47.308;-122.428;2023-04-27T01:50:45;100999.51;;;17.18;24.18
72486;BME280;60509;47.308;-122.428;2023-04-27T01:53:11;101003.08;;;16.61;24.52
72486;BME280;60509;47.308;-122.428;2023-04-27T01:55:37;101002.81;;;15.48;25.03
72486;BME280;60509;47.308;-122.428;2023-04-27T01:58:03;101003.51;;;14.96;25.18
72486;BME280;60509;47.308;-122.428;2023-04-27T02:00:29;101001.01;;;14.94;24.97
72486;BME280;60509;47.308;-122.428;2023-04-27T02:02:55;101000.26;;;16.21;25.20
72486;BME280;60509;47.308;-122.428;2023-04-27T02:05:21;100995.00;;;17.31;23.80
72486;BME280;60509;47.308;-122.428;2023-04-27T02:07:47;100994.62;;;17.91;23.51
72486;BME280;60509;47.308;-122.428;2023-04-27T02:10:12;100994.64;;;17.90;23.29
72486;BME280;60509;47.308;-122.428;2023-04-27T02:12:38;100996.96;;;17.70;24.03
72486;BME280;60509;47.308;-122.428;2023-04-27T02:15:06;101003.17;;;16.51;24.63
72486;BME280;60509;47.308;-122.428;2023-04-27T02:17:30;101001.79;;;14.45;25.37
72486;BME280;60509;47.308;-122.428;2023-04-27T02:19:56;101003.98;;;14.89;25.09
72486;BME280;60509;47.308;-122.428;2023-04-27T02:22:22;101004.03;;;14.58;26.66
72486;BME280;60509;47.308;-122.428;2023-04-27T02:24:48;101004.79;;;17.40;24.03
72486;BME280;60509;47.308;-122.428;2023-04-27T02:27:14;101007.10;;;17.79;23.56
72486;BME280;60509;47.308;-122.428;2023-04-27T02:29:40;101008.46;;;17.87;23.54
72486;BME280;60509;47.308;-122.428;2023-04-27T02:32:06;101006.29;;;18.31;23.41
72486;BME280;60509;47.308;-122.428;2023-04-27T02:34:32;101006.09;;;18.06;23.58
72486;BME280;60509;47.308;-122.428;2023-04-27T02:36:58;101007.06;;;15.67;24.98
72486;BME280;60509;47.308;-122.428;2023-04-27T02:39:23;101006.33;;;15.19;24.98
72486;BME280;60509;47.308;-122.428;2023-04-27T02:41:49;101010.48;;;14.42;25.05
72486;BME280;60509;47.308;-122.428;2023-04-27T02:44:15;101015.04;;;16.31;25.08
72486;BME280;60509;47.308;-122.428;2023-04-27T02:46:41;101016.97;;;16.85;24.29
72486;BME280;60509;47.308;-122.428;2023-04-27T02:49:07;101021.09;;;17.62;24.03
72486;BME280;60509;47.308;-122.428;2023-04-27T02:51:33;101024.43;;;17.86;23.65
72486;BME280;60509;47.308;-122.428;2023-04-27T02:53:59;101029.55;;;18.30;23.52
72486;BME280;60509;47.308;-122.428;2023-04-27T02:56:25;101030.74;;;17.99;23.65
72486;BME280;60509;47.308;-122.428;2023-04-27T02:58:51;101031.05;;;18.81;23.48
72486;BME280;60509;47.308;-122.428;2023-04-27T03:01:16;101033.57;;;16.81;24.45
72486;BME280;60509;47.308;-122.428;2023-04-27T03:03:45;101035.00;;;15.15;24.88
72486;BME280;60509;47.308;-122.428;2023-04-27T03:06:08;101036.43;;;14.97;25.01
72486;BME280;60509;47.308;-122.428;2023-04-27T03:08:34;101039.28;;;16.39;25.08
72486;BME280;60509;47.308;-122.428;2023-04-27T03:11:00;101044.37;;;17.60;24.14
72486;BME280;60509;47.308;-122.428;2023-04-27T03:13:26;101048.74;;;17.81;23.80
72486;BME280;60509;47.308;-122.428;2023-04-27T03:15:52;101047.57;;;17.21;24.61
72486;BME280;60509;47.308;-122.428;2023-04-27T03:18:17;101049.03;;;17.05;24.32
72486;BME280;60509;47.308;-122.428;2023-04-27T03:20:43;101056.53;;;17.66;24.27
72486;BME280;60509;47.308;-122.428;2023-04-27T03:23:09;101055.81;;;17.29;23.79
72486;BME280;60509;47.308;-122.428;2023-04-27T03:25:35;101058.97;;;17.00;24.15
72486;BME280;60509;47.308;-122.428;2023-04-27T03:28:01;101059.28;;;17.55;24.02
72486;BME280;60509;47.308;-122.428;2023-04-27T03:30:27;101057.97;;;17.10;23.89
72486;BME280;60509;47.308;-122.428;2023-04-27T03:32:53;101066.72;;;17.18;23.62
72486;BME280;60509;47.308;-122.428;2023-04-27T03:35:19;101068.43;;;18.40;23.42
72486;BME280;60509;47.308;-122.428;2023-04-27T03:37:45;101075.23;;;18.28;23.36
72486;BME280;60509;47.308;-122.428;2023-04-27T03:40:12;101085.01;;;18.02;23.45
72486;BME280;60509;47.308;-122.428;2023-04-27T03:42:37;101083.67;;;18.22;23.49
72486;BME280;60509;47.308;-122.428;2023-04-27T03:45:02;101088.92;;;17.37;23.97
72486;BME280;60509;47.308;-122.428;2023-04-27T03:47:28;101089.14;;;17.31;24.19
72486;BME280;60509;47.308;-122.428;2023-04-27T03:49:54;101090.53;;;17.20;24.35
72486;BME280;60509;47.308;-122.428;2023-04-27T03:52:20;101091.20;;;17.42;24.43
72486;BME280;60509;47.308;-122.428;2023-04-27T03:54:46;101092.49;;;17.32;24.30
72486;BME280;60509;47.308;-122.428;2023-04-27T03:57:12;101095.48;;;16.89;24.50
72486;BME280;60509;47.308;-122.428;2023-04-27T03:59:38;101102.88;;;17.38;24.50
72486;BME280;60509;47.308;-122.428;2023-04-27T04:02:04;101109.06;;;16.60;24.77
72486;BME280;60509;47.308;-122.428;2023-04-27T04:04:29;101111.07;;;17.19;24.82
72486;BME280;60509;47.308;-122.428;2023-04-27T04:06:55;101113.58;;;16.65;24.98
72486;BME280;60509;47.308;-122.428;2023-04-27T04:09:21;101111.29;;;17.19;25.33
72486;BME280;60509;47.308;-122.428;2023-04-27T04:11:47;101111.41;;;16.99;25.33
72486;BME280;60509;47.308;-122.428;2023-04-27T04:14:13;101116.50;;;18.01;25.10
72486;BME280;60509;47.308;-122.428;2023-04-27T04:16:39;101118.68;;;18.26;24.39
72486;BME280;60509;47.308;-122.428;2023-04-27T04:19:05;101125.75;;;18.92;23.83
72486;BME280;60509;47.308;-122.428;2023-04-27T04:21:31;101125.48;;;20.04;23.00
72486;BME280;60509;47.308;-122.428;2023-04-27T04:23:57;101127.09;;;18.80;23.75
72486;BME280;60509;47.308;-122.428;2023-04-27T04:26:23;101132.76;;;19.21;23.33
72486;BME280;60509;47.308;-122.428;2023-04-27T04:28:49;101136.67;;;19.42;23.17
72486;BME280;60509;47.308;-122.428;2023-04-27T04:31:15;101137.56;;;19.54;23.35
72486;BME280;60509;47.308;-122.428;2023-04-27T04:33:41;101139.99;;;18.22;24.81
72486;BME280;60509;47.308;-122.428;2023-04-27T04:36:07;101136.24;;;19.51;23.79
72486;BME280;60509;47.308;-122.428;2023-04-27T04:38:32;101134.37;;;19.14;23.90
72486;BME280;60509;47.308;-122.428;2023-04-27T04:40:58;101135.81;;;19.69;24.11
72486;BME280;60509;47.308;-122.428;2023-04-27T04:43:24;101129.16;;;19.99;24.04
72486;BME280;60509;47.308;-122.428;2023-04-27T04:45:50;101127.35;;;18.97;25.06
72486;BME280;60509;47.308;-122.428;2023-04-27T04:48:16;101129.74;;;17.04;31.48
72486;BME280;60509;47.308;-122.428;2023-04-27T04:50:42;101125.95;;;16.80;26.13
72486;BME280;60509;47.308;-122.428;2023-04-27T04:53:08;101127.79;;;17.48;25.77
72486;BME280;60509;47.308;-122.428;2023-04-27T04:55:34;101131.77;;;17.15;25.97
72486;BME280;60509;47.308;-122.428;2023-04-27T04:58:00;101132.77;;;17.04;26.05
72486;BME280;60509;47.308;-122.428;2023-04-27T05:00:26;101134.72;;;16.65;26.25
72486;BME280;60509;47.308;-122.428;2023-04-27T05:02:52;101137.09;;;16.66;25.77
72486;BME280;60509;47.308;-122.428;2023-04-27T05:05:18;101139.39;;;16.73;25.70
72486;BME280;60509;47.308;-122.428;2023-04-27T05:07:43;101144.10;;;16.34;25.43
72486;BME280;60509;47.308;-122.428;2023-04-27T05:10:10;101146.57;;;16.51;25.67
72486;BME280;60509;47.308;-122.428;2023-04-27T05:12:35;101144.85;;;17.02;24.71
72486;BME280;60509;47.308;-122.428;2023-04-27T05:15:01;101154.08;;;16.84;24.91
72486;BME280;60509;47.308;-122.428;2023-04-27T05:17:27;101155.78;;;16.47;25.33
72486;BME280;60509;47.308;-122.428;2023-04-27T05:19:53;101160.72;;;16.85;25.11
72486;BME280;60509;47.308;-122.428;2023-04-27T05:22:19;101164.23;;;15.09;29.16
72486;BME280;60509;47.308;-122.428;2023-04-27T05:24:45;101165.50;;;15.90;29.13
72486;BME280;60509;47.308;-122.428;2023-04-27T05:27:12;101162.63;;;15.51;29.05
72486;BME280;60509;47.308;-122.428;2023-04-27T05:29:37;101160.80;;;17.45;26.36
72486;BME280;60509;47.308;-122.428;2023-04-27T05:32:03;101160.68;;;17.44;25.60
72486;BME280;60509;47.308;-122.428;2023-04-27T05:34:29;101164.71;;;16.93;25.88
72486;BME280;60509;47.308;-122.428;2023-04-27T05:36:55;101164.65;;;16.59;26.00
72486;BME280;60509;47.308;-122.428;2023-04-27T05:39:21;101160.14;;;16.64;25.88
72486;BME280;60509;47.308;-122.428;2023-04-27T05:41:47;101158.39;;;16.60;26.23
72486;BME280;60509;47.308;-122.428;2023-04-27T05:44:12;101157.51;;;17.82;25.02
72486;BME280;60509;47.308;-122.428;2023-04-27T05:46:38;101157.23;;;17.06;25.04
72486;BME280;60509;47.308;-122.428;2023-04-27T05:49:04;101156.06;;;17.28;25.34
72486;BME280;60509;47.308;-122.428;2023-04-27T05:51:31;101160.18;;;17.87;25.06
72486;BME280;60509;47.308;-122.428;2023-04-27T05:53:56;101158.41;;;17.48;25.06
72486;BME280;60509;47.308;-122.428;2023-04-27T05:56:22;101159.45;;;17.33;25.08
72486;BME280;60509;47.308;-122.428;2023-04-27T05:58:48;101156.12;;;17.52;25.28
72486;BME280;60509;47.308;-122.428;2023-04-27T06:01:14;101152.09;;;14.91;28.18
72486;BME280;60509;47.308;-122.428;2023-04-27T06:03:40;101152.27;;;15.56;27.82
72486;BME280;60509;47.308;-122.428;2023-04-27T06:06:06;101152.85;;;15.27;28.03
72486;BME280;60509;47.308;-122.428;2023-04-27T06:08:32;101153.24;;;16.63;26.39
72486;BME280;60509;47.308;-122.428;2023-04-27T06:10:58;101160.08;;;16.76;26.26
72486;BME280;60509;47.308;-122.428;2023-04-27T06:13:24;101165.03;;;17.99;26.00
72486;BME280;60509;47.308;-122.428;2023-04-27T06:15:50;101166.77;;;16.38;26.21
72486;BME280;60509;47.308;-122.428;2023-04-27T06:18:16;101161.19;;;16.80;26.22
72486;BME280;60509;47.308;-122.428;2023-04-27T06:20:41;101168.46;;;17.16;25.75
72486;BME280;60509;47.308;-122.428;2023-04-27T06:23:07;101166.82;;;16.66;25.81
72486;BME280;60509;47.308;-122.428;2023-04-27T06:25:33;101170.44;;;16.62;26.09
72486;BME280;60509;47.308;-122.428;2023-04-27T06:27:59;101170.54;;;16.43;26.42
72486;BME280;60509;47.308;-122.428;2023-04-27T06:30:25;101172.09;;;16.30;26.69
72486;BME280;60509;47.308;-122.428;2023-04-27T06:32:51;101173.63;;;15.59;27.71
72486;BME280;60509;47.308;-122.428;2023-04-27T06:35:17;101174.32;;;14.52;29.18
72486;BME280;60509;47.308;-122.428;2023-04-27T06:37:43;101173.73;;;14.81;28.66
72486;BME280;60509;47.308;-122.428;2023-04-27T06:40:09;101169.89;;;16.23;27.25
72486;BME280;60509;47.308;-122.428;2023-04-27T06:42:35;101167.21;;;16.56;27.24
72486;BME280;60509;47.308;-122.428;2023-04-27T06:45:01;101168.65;;;16.49;27.32
72486;BME280;60509;47.308;-122.428;2023-04-27T06:47:27;101169.06;;;16.77;26.93
72486;BME280;60509;47.308;-122.428;2023-04-27T06:49:53;101174.35;;;16.91;26.93
72486;BME280;60509;47.308;-122.428;2023-04-27T06:52:19;101173.88;;;16.73;26.56
72486;BME280;60509;47.308;-122.428;2023-04-27T06:54:45;101177.22;;;16.38;26.78
72486;BME280;60509;47.308;-122.428;2023-04-27T06:57:11;101177.75;;;16.37;26.64
72486;BME280;60509;47.308;-122.428;2023-04-27T06:59:37;101174.33;;;15.77;26.90
72486;BME280;60509;47.308;-122.428;2023-04-27T07:02:03;101173.54;;;16.17;26.85
72486;BME280;60509;47.308;-122.428;2023-04-27T07:04:29;101178.55;;;16.40;26.86
72486;BME280;60509;47.308;-122.428;2023-04-27T07:06:55;101183.49;;;14.40;28.35
72486;BME280;60509;47.308;-122.428;2023-04-27T07:09:21;101185.54;;;13.20;29.50
72486;BME280;60509;47.308;-122.428;2023-04-27T07:11:47;101189.07;;;13.74;29.53
72486;BME280;60509;47.308;-122.428;2023-04-27T07:14:12;101183.71;;;15.82;27.84
72486;BME280;60509;47.308;-122.428;2023-04-27T07:16:39;101184.27;;;16.49;27.24
72486;BME280;60509;47.308;-122.428;2023-04-27T07:19:04;101184.85;;;16.34;27.27
72486;BME280;60509;47.308;-122.428;2023-04-27T07:21:30;101186.11;;;15.86;27.18
72486;BME280;60509;47.308;-122.428;2023-04-27T07:23:57;101184.18;;;15.78;27.35
72486;BME280;60509;47.308;-122.428;2023-04-27T07:26:22;101186.51;;;15.59;27.34
72486;BME280;60509;47.308;-122.428;2023-04-27T07:28:49;101187.68;;;15.88;27.48
72486;BME280;60509;47.308;-122.428;2023-04-27T07:31:14;101192.53;;;16.36;27.11
72486;BME280;60509;47.308;-122.428;2023-04-27T07:33:41;101195.76;;;15.87;27.10
72486;BME280;60509;47.308;-122.428;2023-04-27T07:36:07;101198.89;;;15.63;27.16
72486;BME280;60509;47.308;-122.428;2023-04-27T07:38:32;101198.89;;;15.78;27.19
72486;BME280;60509;47.308;-122.428;2023-04-27T07:41:00;101196.30;;;15.73;27.45
72486;BME280;60509;47.308;-122.428;2023-04-27T07:43:24;101193.72;;;15.33;28.16
72486;BME280;60509;47.308;-122.428;2023-04-27T07:45:50;101195.04;;;15.77;27.83
72486;BME280;60509;47.308;-122.428;2023-04-27T07:48:16;101194.74;;;17.14;26.94
72486;BME280;60509;47.308;-122.428;2023-04-27T07:50:42;101195.30;;;16.61;27.33
72486;BME280;60509;47.308;-122.428;2023-04-27T07:53:08;101197.23;;;16.33;27.33
72486;BME280;60509;47.308;-122.428;2023-04-27T07:55:34;101192.58;;;16.30;27.54
72486;BME280;60509;47.308;-122.428;2023-04-27T07:58:00;101190.54;;;16.22;27.73
72486;BME280;60509;47.308;-122.428;2023-04-27T08:00:26;101193.62;;;16.78;27.49
72486;BME280;60509;47.308;-122.428;2023-04-27T08:02:53;101196.94;;;16.56;27.31
72486;BME280;60509;47.308;-122.428;2023-04-27T08:05:18;101195.77;;;16.25;28.02
72486;BME280;60509;47.308;-122.428;2023-04-27T08:07:44;101201.31;;;16.40;27.84
72486;BME280;60509;47.308;-122.428;2023-04-27T08:10:10;101205.01;;;17.02;27.23
72486;BME280;60509;47.308;-122.428;2023-04-27T08:12:36;101207.94;;;16.90;27.29
72486;BME280;60509;47.308;-122.428;2023-04-27T08:15:03;101210.99;;;16.60;27.59
72486;BME280;60509;47.308;-122.428;2023-04-27T08:17:28;101206.49;;;16.51;27.84
72486;BME280;60509;47.308;-122.428;2023-04-27T08:19:54;101207.87;;;16.09;28.44
72486;BME280;60509;47.308;-122.428;2023-04-27T08:22:20;101208.54;;;15.64;28.60
72486;BME280;60509;47.308;-122.428;2023-04-27T08:24:46;101207.59;;;16.41;28.04
72486;BME280;60509;47.308;-122.428;2023-04-27T08:27:12;101210.35;;;16.70;27.72
72486;BME280;60509;47.308;-122.428;2023-04-27T08:29:38;101209.55;;;16.89;27.49
72486;BME280;60509;47.308;-122.428;2023-04-27T08:32:04;101212.85;;;16.72;27.52
72486;BME280;60509;47.308;-122.428;2023-04-27T08:34:30;101215.81;;;16.70;27.53
72486;BME280;60509;47.308;-122.428;2023-04-27T08:36:56;101222.85;;;17.10;27.15
72486;BME280;60509;47.308;-122.428;2023-04-27T08:39:22;101226.84;;;17.19;27.37
72486;BME280;60509;47.308;-122.428;2023-04-27T08:41:48;101229.28;;;16.90;26.99
72486;BME280;60509;47.308;-122.428;2023-04-27T08:44:13;101232.77;;;16.89;27.26
72486;BME280;60509;47.308;-122.428;2023-04-27T08:46:39;101228.90;;;16.87;27.73
72486;BME280;60509;47.308;-122.428;2023-04-27T08:49:05;101228.23;;;16.51;27.62
72486;BME280;60509;47.308;-122.428;2023-04-27T08:51:32;101230.67;;;16.07;27.83
72486;BME280;60509;47.308;-122.428;2023-04-27T08:53:58;101232.34;;;16.85;27.29
72486;BME280;60509;47.308;-122.428;2023-04-27T08:56:25;101232.83;;;16.37;27.49
72486;BME280;60509;47.308;-122.428;2023-04-27T08:58:49;101234.09;;;16.48;27.90
72486;BME280;60509;47.308;-122.428;2023-04-27T09:01:15;101233.41;;;15.92;28.13
72486;BME280;60509;47.308;-122.428;2023-04-27T09:03:41;101231.54;;;16.82;27.61
72486;BME280;60509;47.308;-122.428;2023-04-27T09:06:07;101232.66;;;16.70;27.51
72486;BME280;60509;47.308;-122.428;2023-04-27T09:08:49;101237.39;;;16.78;27.51
72486;BME280;60509;47.308;-122.428;2023-04-27T09:10:59;101239.16;;;16.30;27.63
72486;BME280;60509;47.308;-122.428;2023-04-27T09:13:34;101237.17;;;16.75;27.39
72486;BME280;60509;47.308;-122.428;2023-04-27T09:15:51;101240.42;;;16.50;27.43
72486;BME280;60509;47.308;-122.428;2023-04-27T09:18:18;101243.52;;;16.51;27.48
72486;BME280;60509;47.308;-122.428;2023-04-27T09:20:43;101242.78;;;16.85;27.26
72486;BME280;60509;47.308;-122.428;2023-04-27T09:23:09;101248.34;;;16.27;27.69
72486;BME280;60509;47.308;-122.428;2023-04-27T09:25:35;101249.86;;;16.51;27.61
72486;BME280;60509;47.308;-122.428;2023-04-27T09:28:01;101248.73;;;16.58;27.39
72486;BME280;60509;47.308;-122.428;2023-04-27T09:30:27;101249.15;;;16.65;27.43
72486;BME280;60509;47.308;-122.428;2023-04-27T09:32:54;101252.77;;;16.48;27.57
72486;BME280;60509;47.308;-122.428;2023-04-27T09:35:21;101253.68;;;16.26;27.57
72486;BME280;60509;47.308;-122.428;2023-04-27T09:37:44;101253.90;;;16.64;27.46
72486;BME280;60509;47.308;-122.428;2023-04-27T09:40:11;101253.71;;;16.54;27.69
72486;BME280;60509;47.308;-122.428;2023-04-27T09:42:37;101256.02;;;17.05;27.32
72486;BME280;60509;47.308;-122.428;2023-04-27T09:45:03;101257.31;;;16.62;27.72
72486;BME280;60509;47.308;-122.428;2023-04-27T09:47:29;101255.16;;;16.79;27.51
72486;BME280;60509;47.308;-122.428;2023-04-27T09:49:54;101253.08;;;16.56;27.63
72486;BME280;60509;47.308;-122.428;2023-04-27T09:52:20;101256.53;;;16.53;27.56
72486;BME280;60509;47.308;-122.428;2023-04-27T09:54:46;101256.73;;;16.36;27.55
72486;BME280;60509;47.308;-122.428;2023-04-27T09:57:18;101251.01;;;16.80;27.40
72486;BME280;60509;47.308;-122.428;2023-04-27T09:59:54;101250.32;;;16.53;27.49
72486;BME280;60509;47.308;-122.428;2023-04-27T10:02:05;101251.52;;;16.47;27.63
72486;BME280;60509;47.308;-122.428;2023-04-27T10:04:44;101251.55;;;16.67;27.54
72486;BME280;60509;47.308;-122.428;2023-04-27T10:06:59;101251.00;;;16.35;27.61
72486;BME280;60509;47.308;-122.428;2023-04-27T10:09:22;101247.81;;;16.98;27.17
72486;BME280;60509;47.308;-122.428;2023-04-27T10:11:48;101245.63;;;17.00;27.37
72486;BME280;60509;47.308;-122.428;2023-04-27T10:14:17;101248.82;;;17.04;27.00
72486;BME280;60509;47.308;-122.428;2023-04-27T10:16:44;101248.17;;;16.75;27.25
72486;BME280;60509;47.308;-122.428;2023-04-27T10:19:09;101243.25;;;16.43;27.39
72486;BME280;60509;47.308;-122.428;2023-04-27T10:21:32;101245.10;;;16.77;27.14
72486;BME280;60509;47.308;-122.428;2023-04-27T10:24:06;101248.78;;;16.97;27.28
72486;BME280;60509;47.308;-122.428;2023-04-27T10:26:25;101249.42;;;16.84;27.06
72486;BME280;60509;47.308;-122.428;2023-04-27T10:28:59;101248.05;;;16.55;27.33
72486;BME280;60509;47.308;-122.428;2023-04-27T10:31:16;101250.57;;;16.37;27.40
72486;BME280;60509;47.308;-122.428;2023-04-27T10:33:42;101253.43;;;16.48;27.43
72486;BME280;60509;47.308;-122.428;2023-04-27T10:36:14;101257.36;;;16.24;27.26
72486;BME280;60509;47.308;-122.428;2023-04-27T10:38:39;101257.30;;;16.45;27.23
72486;BME280;60509;47.308;-122.428;2023-04-27T10:41:01;101258.28;;;16.82;27.07
72486;BME280;60509;47.308;-122.428;2023-04-27T10:43:27;101260.33;;;16.03;27.42
72486;BME280;60509;47.308;-122.428;2023-04-27T10:45:52;101263.28;;;16.62;27.15
72486;BME280;60509;47.308;-122.428;2023-04-27T10:48:18;101262.34;;;16.69;26.99
72486;BME280;60509;47.308;-122.428;2023-04-27T10:50:44;101266.45;;;17.15;26.74
72486;BME280;60509;47.308;-122.428;2023-04-27T10:53:10;101270.02;;;16.77;26.93
72486;BME280;60509;47.308;-122.428;2023-04-27T10:55:36;101272.56;;;16.53;27.09
72486;BME280;60509;47.308;-122.428;2023-04-27T10:58:02;101276.14;;;16.37;27.28
72486;BME280;60509;47.308;-122.428;2023-04-27T11:00:29;101278.68;;;16.74;27.11
72486;BME280;60509;47.308;-122.428;2023-04-27T11:02:57;101279.43;;;16.49;27.19
72486;BME280;60509;47.308;-122.428;2023-04-27T11:05:21;101279.81;;;16.36;27.28
72486;BME280;60509;47.308;-122.428;2023-04-27T11:07:46;101278.48;;;16.26;27.26
72486;BME280;60509;47.308;-122.428;2023-04-27T11:10:15;101284.10;;;16.78;26.87
72486;BME280;60509;47.308;-122.428;2023-04-27T11:12:38;101281.63;;;16.77;26.77
72486;BME280;60509;47.308;-122.428;2023-04-27T11:15:05;101282.74;;;16.39;27.18
72486;BME280;60509;47.308;-122.428;2023-04-27T11:17:30;101284.89;;;16.16;27.17
72486;BME280;60509;47.308;-122.428;2023-04-27T11:19:56;101288.06;;;16.33;27.22
72486;BME280;60509;47.308;-122.428;2023-04-27T11:22:22;101290.67;;;16.20;27.38
72486;BME280;60509;47.308;-122.428;2023-04-27T11:24:49;101295.18;;;16.31;27.35
72486;BME280;60509;47.308;-122.428;2023-04-27T11:27:14;101299.49;;;15.97;27.50
72486;BME280;60509;47.308;-122.428;2023-04-27T11:29:39;101297.38;;;16.63;27.02
72486;BME280;60509;47.308;-122.428;2023-04-27T11:32:05;101299.57;;;16.43;27.21
72486;BME280;60509;47.308;-122.428;2023-04-27T11:34:31;101302.47;;;16.53;27.07
72486;BME280;60509;47.308;-122.428;2023-04-27T11:36:58;101300.98;;;16.67;26.98
72486;BME280;60509;47.308;-122.428;2023-04-27T11:39:26;101302.13;;;16.46;27.19
72486;BME280;60509;47.308;-122.428;2023-04-27T11:41:49;101302.21;;;16.57;27.25
72486;BME280;60509;47.308;-122.428;2023-04-27T11:44:15;101303.92;;;16.27;27.21
72486;BME280;60509;47.308;-122.428;2023-04-27T11:46:44;101308.48;;;16.39;27.17
72486;BME280;60509;47.308;-122.428;2023-04-27T11:49:07;101311.88;;;16.92;26.53
72486;BME280;60509;47.308;-122.428;2023-04-27T11:51:34;101317.41;;;16.91;26.73
72486;BME280;60509;47.308;-122.428;2023-04-27T11:54:03;101319.74;;;16.12;27.15
72486;BME280;60509;47.308;-122.428;2023-04-27T11:56:34;101323.35;;;16.47;26.89
72486;BME280;60509;47.308;-122.428;2023-04-27T11:58:50;101327.73;;;16.85;26.61
72486;BME280;60509;47.308;-122.428;2023-04-27T12:01:15;101323.98;;;16.30;26.93
72486;BME280;60509;47.308;-122.428;2023-04-27T12:03:42;101321.33;;;16.49;26.98
72486;BME280;60509;47.308;-122.428;2023-04-27T12:06:07;101322.77;;;16.51;26.98
72486;BME280;60509;47.308;-122.428;2023-04-27T12:08:32;101320.95;;;17.08;26.86
72486;BME280;60509;47.308;-122.428;2023-04-27T12:10:58;101318.98;;;16.53;27.07
72486;BME280;60509;47.308;-122.428;2023-04-27T12:13:24;101318.74;;;16.39;27.23